Time;durP1;ratioP1;P1;durP2;ratioP2;P2;SDS_P1;SDS_P2;PMS_P1;PMS_P2;Temp;Humidity;BMP_temperature;BMP_pressure;BME280_temperature;BME280_humidity;BME280_pressure;Samples;Min_cycle;Max_cycle;Signal;HPM_P1;HPM_P2
2023/05/29 00:01:00;;;;;;;7.65;3.17;;;;;;;12.87;87.78;101444.16;4877272;29;20044;-78
2023/05/29 00:03:26;;;;;;;3.38;2.28;;;;;;;12.79;88.13;101448.59;4880111;29;20051;-85
2023/05/29 00:05:53;;;;;;;6.88;3.28;;;;;;;12.72;88.30;101445.13;4887678;29;20040;-82
2023/05/29 00:08:19;;;;;;;5.13;2.67;;;;;;;12.69;88.57;101449.50;4881856;29;20119;-82
2023/05/29 00:10:46;;;;;;;3.60;2.63;;;;;;;12.64;88.42;101448.66;4865346;29;20677;-79
2023/05/29 00:13:12;;;;;;;3.38;2.88;;;;;;;12.61;88.86;101461.81;4876891;29;20377;-85
2023/05/29 00:15:39;;;;;;;6.13;2.50;;;;;;;12.52;88.91;101458.31;4875882;29;20512;-84
2023/05/29 00:18:06;;;;;;;5.30;2.85;;;;;;;12.46;88.68;101457.47;4880839;29;20461;-88
2023/05/29 00:20:34;;;;;;;5.93;2.67;;;;;;;12.43;88.95;101466.25;4898596;29;20123;-81
2023/05/29 00:23:01;;;;;;;5.22;2.63;;;;;;;12.36;89.22;101473.28;4866234;29;20040;-81
2023/05/29 00:25:28;;;;;;;5.85;2.13;;;;;;;12.35;89.02;101468.03;4894275;29;20051;-82
2023/05/29 00:27:55;;;;;;;9.30;2.75;;;;;;;12.30;89.20;101472.41;4887638;29;20052;-80
2023/05/29 00:30:21;;;;;;;4.45;2.05;;;;;;;12.25;89.27;101475.03;4880894;29;20461;-82
2023/05/29 00:32:48;;;;;;;6.60;2.42;;;;;;;12.20;89.42;101477.69;4880469;29;20056;-86
2023/05/29 00:35:14;;;;;;;3.72;2.33;;;;;;;12.16;89.51;101482.94;4879774;29;20048;-79
2023/05/29 00:37:42;;;;;;;7.10;2.92;;;;;;;12.09;89.73;101479.47;4880308;29;20132;-81
2023/05/29 00:40:09;;;;;;;4.10;2.50;;;;;;;12.06;90.02;101477.72;4896920;29;20048;-81
2023/05/29 00:42:44;;;;;;;5.65;2.33;;;;;;;11.99;89.32;101483.84;4878883;29;20036;-80
2023/05/29 00:45:12;;;;;;;7.38;2.78;;;;;;;11.93;89.63;101486.47;4902389;29;20069;-81
2023/05/29 00:47:41;;;;;;;4.38;2.08;;;;;;;11.88;89.72;101499.56;4880204;29;20056;-81
2023/05/29 00:50:10;;;;;;;7.53;2.40;;;;;;;11.84;89.73;101495.22;4877500;29;20132;-81
2023/05/29 00:52:38;;;;;;;2.30;1.80;;;;;;;11.77;89.76;101496.06;4864667;29;20064;-82
2023/05/29 00:55:06;;;;;;;8.93;3.35;;;;;;;11.73;90.02;101504.81;4880512;29;20075;-80
2023/05/29 00:57:35;;;;;;;3.80;2.05;;;;;;;11.71;90.04;101501.34;4910311;29;20084;-80
2023/05/29 01:00:05;;;;;;;5.13;2.70;;;;;;;11.68;89.44;101501.31;4884665;29;20140;-84
2023/05/29 01:02:32;;;;;;;5.28;2.67;;;;;;;11.64;89.39;101495.22;4879605;29;20128;-82
2023/05/29 01:04:58;;;;;;;4.63;2.72;;;;;;;11.58;89.63;101489.97;4878473;29;20041;-86
2023/05/29 01:07:25;;;;;;;6.38;2.63;;;;;;;11.56;89.71;101497.84;4886024;29;20060;-83
2023/05/29 01:09:52;;;;;;;6.90;2.53;;;;;;;11.49;89.38;101495.22;4861802;29;20052;-81
2023/05/29 01:12:39;;;;;;;9.65;2.30;;;;;;;11.44;89.31;101500.44;4880050;29;20045;-88
2023/05/29 01:15:12;;;;;;;5.20;1.88;;;;;;;11.39;89.76;101502.19;4896923;29;20219;-86
2023/05/29 01:18:09;;;;;;;10.45;3.15;;;;;;;11.35;90.17;101505.69;4882490;29;20157;-84
2023/05/29 01:20:46;;;;;;;5.88;1.98;;;;;;;11.32;89.75;101508.31;4877780;29;20049;-82
2023/05/29 01:23:36;;;;;;;7.03;2.30;;;;;;;11.29;89.83;101506.56;4871209;29;20052;-81
2023/05/29 01:26:40;;;;;;;4.18;2.00;;;;;;;11.21;89.70;101503.03;4890061;29;20072;-80
2023/05/29 01:29:08;;;;;;;6.07;3.05;;;;;;;11.11;90.15;101510.00;4910128;29;20106;-81
2023/05/29 01:31:36;;;;;;;12.57;3.22;;;;;;;11.11;89.88;101510.00;4898335;29;20472;-81
2023/05/29 01:34:03;;;;;;;3.58;1.83;;;;;;;11.13;89.79;101518.72;4915997;29;20040;-80
2023/05/29 01:36:30;;;;;;;8.38;2.70;;;;;;;11.09;89.72;101514.34;4898950;29;20044;-84
2023/05/29 01:38:58;;;;;;;5.43;2.40;;;;;;;11.07;89.76;101521.34;4882929;29;20040;-84
2023/05/29 01:41:26;;;;;;;5.25;2.53;;;;;;;11.01;89.64;101521.31;4897989;29;20407;-80
2023/05/29 01:43:54;;;;;;;5.28;1.90;;;;;;;10.95;89.78;101519.56;4889000;29;20326;-82
2023/05/29 01:46:25;;;;;;;8.77;2.55;;;;;;;10.90;90.28;101516.91;4913566;29;20032;-83
2023/05/29 01:48:52;;;;;;;6.40;2.30;;;;;;;10.86;90.23;101524.75;4896809;29;20072;-89
2023/05/29 01:51:18;;;;;;;7.60;1.90;;;;;;;10.83;90.07;101527.38;4882732;29;20052;-88
2023/05/29 01:53:45;;;;;;;8.43;2.10;;;;;;;10.80;90.15;101522.13;4892705;29;20063;-83
2023/05/29 01:56:12;;;;;;;6.75;1.88;;;;;;;10.76;90.42;101537.81;4891468;29;20420;-79
2023/05/29 01:58:40;;;;;;;3.90;2.40;;;;;;;10.72;90.25;101538.66;4893668;29;20450;-79
2023/05/29 02:01:07;;;;;;;4.95;2.20;;;;;;;10.71;90.46;101541.28;4909553;29;20504;-80
2023/05/29 02:03:35;;;;;;;8.30;2.65;;;;;;;10.64;90.29;101539.50;4891950;29;20036;-80
2023/05/29 02:06:02;;;;;;;11.57;2.47;;;;;;;10.60;91.09;101543.84;4897818;29;20048;-81
2023/05/29 02:08:28;;;;;;;6.45;1.80;;;;;;;10.54;90.54;101543.81;4896636;29;20575;-90
2023/05/29 02:10:55;;;;;;;4.47;2.15;;;;;;;10.51;91.41;101546.44;4930006;29;20046;-92
2023/05/29 02:13:22;;;;;;;8.45;2.33;;;;;;;10.47;91.36;101548.16;4910835;29;20504;-93
2023/05/29 02:15:48;;;;;;;4.35;2.10;;;;;;;10.43;91.40;101547.25;4903418;29;20044;-92
2023/05/29 02:18:17;;;;;;;9.90;2.08;;;;;;;10.39;91.32;101547.19;4878531;29;20487;-80
2023/05/29 02:20:43;;;;;;;7.35;2.20;;;;;;;10.33;91.70;101545.41;4898554;29;20040;-81
2023/05/29 02:23:10;;;;;;;4.13;2.20;;;;;;;10.32;91.89;101546.25;4896456;29;20047;-86
2023/05/29 02:25:37;;;;;;;8.77;3.17;;;;;;;10.29;91.58;101540.16;4896917;29;20071;-80
2023/05/29 02:28:04;;;;;;;10.32;2.22;;;;;;;10.23;91.91;101541.88;4895993;29;20151;-80
2023/05/29 02:30:31;;;;;;;5.35;1.92;;;;;;;10.22;91.98;101539.22;4887061;29;20039;-84
2023/05/29 02:32:58;;;;;;;5.72;2.25;;;;;;;10.17;92.14;101543.53;4884078;29;20055;-81
2023/05/29 02:35:24;;;;;;;5.60;3.10;;;;;;;10.11;92.33;101547.00;4900766;29;20362;-83
2023/05/29 02:37:51;;;;;;;6.88;2.47;;;;;;;10.12;92.61;101547.84;4891714;29;20115;-81
2023/05/29 02:40:20;;;;;;;5.22;2.35;;;;;;;10.10;92.03;101547.84;4902420;29;20080;-81
2023/05/29 02:42:47;;;;;;;6.18;3.30;;;;;;;10.06;92.53;101548.69;4884150;29;20083;-90
2023/05/29 02:45:14;;;;;;;9.77;2.58;;;;;;;10.04;92.85;101556.53;4890577;29;20068;-81
2023/05/29 02:47:40;;;;;;;4.30;1.92;;;;;;;9.97;93.05;101551.25;4916859;29;20054;-80
2023/05/29 02:50:08;;;;;;;4.70;2.30;;;;;;;9.92;93.42;101548.59;4897293;29;20075;-88
2023/05/29 02:52:36;;;;;;;11.60;2.70;;;;;;;9.90;93.49;101545.97;4908905;29;20052;-81
2023/05/29 02:55:05;;;;;;;8.23;2.55;;;;;;;9.88;93.65;101549.44;4894131;29;20051;-83
2023/05/29 02:57:32;;;;;;;7.53;2.15;;;;;;;9.84;93.66;101551.16;4896734;29;20056;-81
2023/05/29 02:59:59;;;;;;;7.85;2.50;;;;;;;9.83;93.75;101544.19;4895791;29;20522;-85
2023/05/29 03:02:25;;;;;;;7.38;2.75;;;;;;;9.78;93.99;101543.25;4915877;29;20432;-84
2023/05/29 03:04:53;;;;;;;10.88;1.90;;;;;;;9.74;94.24;101555.41;4895195;29;20048;-82
2023/05/29 03:07:20;;;;;;;10.13;2.42;;;;;;;9.73;94.52;101547.56;4901905;29;20052;-81
2023/05/29 03:09:47;;;;;;;10.25;2.63;;;;;;;9.74;94.50;101552.81;4900525;29;20041;-81
2023/05/29 03:12:13;;;;;;;4.38;1.90;;;;;;;9.76;94.57;101552.81;4896336;29;20040;-81
2023/05/29 03:14:40;;;;;;;9.07;2.63;;;;;;;9.78;94.38;101545.88;4896260;29;20052;-86
2023/05/29 03:17:07;;;;;;;9.10;2.95;;;;;;;9.75;94.55;101551.94;4890937;29;20373;-81
2023/05/29 03:19:34;;;;;;;7.13;2.30;;;;;;;9.70;94.83;101553.66;4918373;29;20406;-86
2023/05/29 03:22:00;;;;;;;5.45;2.28;;;;;;;9.69;95.04;101556.25;4896302;29;20032;-81
2023/05/29 03:24:28;;;;;;;10.48;3.00;;;;;;;9.72;95.33;101557.13;4898438;29;20059;-79
2023/05/29 03:26:55;;;;;;;8.95;2.90;;;;;;;9.73;95.00;101551.03;4898140;29;20419;-79
2023/05/29 03:29:22;;;;;;;9.48;2.30;;;;;;;9.73;94.88;101558.03;4914023;29;20058;-81
2023/05/29 03:31:49;;;;;;;8.30;2.70;;;;;;;9.70;94.85;101565.81;4910154;29;20100;-82
2023/05/29 03:34:15;;;;;;;8.75;2.70;;;;;;;9.73;94.94;101563.25;4908796;29;20087;-80
2023/05/29 03:36:42;;;;;;;6.47;2.20;;;;;;;9.78;94.79;101566.78;4904017;29;20044;-79
2023/05/29 03:39:09;;;;;;;8.18;2.40;;;;;;;9.81;94.99;101566.81;4901264;29;20135;-81
2023/05/29 03:41:35;;;;;;;4.25;1.73;;;;;;;9.90;95.00;101572.13;4901688;29;20052;-80
2023/05/29 03:44:02;;;;;;;8.82;2.28;;;;;;;10.07;94.06;101571.38;4901458;29;20395;-80
2023/05/29 03:46:28;;;;;;;8.20;2.20;;;;;;;10.22;94.09;101568.00;4899336;29;20039;-80
2023/05/29 03:48:55;;;;;;;11.70;2.47;;;;;;;10.40;92.65;101568.19;4887268;29;20088;-79
2023/05/29 03:51:21;;;;;;;10.80;2.72;;;;;;;10.51;91.89;101567.38;4902618;29;20540;-80
2023/05/29 03:53:48;;;;;;;9.27;2.45;;;;;;;10.60;90.97;101570.03;4908261;29;20048;-80
2023/05/29 03:56:14;;;;;;;8.68;3.25;;;;;;;10.71;91.22;101572.72;4884732;29;20526;-80
2023/05/29 03:58:41;;;;;;;8.13;2.22;;;;;;;10.78;90.68;101579.75;4906258;29;20122;-84
2023/05/29 04:01:08;;;;;;;15.02;4.93;;;;;;;10.86;90.32;101577.13;4898785;29;20040;-82
2023/05/29 04:03:34;;;;;;;6.90;2.20;;;;;;;10.91;89.79;101575.41;4916532;29;20039;-80
2023/05/29 04:06:02;;;;;;;6.30;1.83;;;;;;;10.98;89.28;101573.72;4906406;29;20139;-80
2023/05/29 04:08:28;;;;;;;7.35;2.30;;;;;;;11.01;88.74;101569.34;4899948;29;20050;-82
2023/05/29 04:10:55;;;;;;;14.85;2.97;;;;;;;11.06;88.44;101574.63;4899449;29;20510;-80
2023/05/29 04:13:22;;;;;;;8.48;2.30;;;;;;;11.07;87.76;101579.84;4908161;29;20052;-80
2023/05/29 04:15:48;;;;;;;7.63;2.10;;;;;;;11.11;87.85;101575.50;4905839;29;20521;-81
2023/05/29 04:18:15;;;;;;;7.65;2.15;;;;;;;11.18;87.11;101582.50;4883479;29;20044;-81
2023/05/29 04:20:42;;;;;;;7.25;2.10;;;;;;;11.22;86.74;101588.66;4896742;29;20044;-86
2023/05/29 04:23:08;;;;;;;6.35;2.08;;;;;;;11.12;87.06;101574.66;4902219;29;20064;-81
2023/05/29 04:25:38;;;;;;;5.05;1.75;;;;;;;11.10;87.12;101589.47;4898918;29;20040;-82
2023/05/29 04:28:04;;;;;;;7.88;2.55;;;;;;;11.09;87.12;101593.84;4901038;29;20067;-81
2023/05/29 04:30:33;;;;;;;9.15;2.80;;;;;;;11.10;87.33;101597.34;4890707;29;20096;-81
2023/05/29 04:33:00;;;;;;;13.50;2.58;;;;;;;11.11;87.43;101599.09;4901906;29;20119;-82
2023/05/29 04:35:28;;;;;;;9.75;2.75;;;;;;;11.14;87.40;101601.72;4886631;29;20052;-81
2023/05/29 04:37:56;;;;;;;10.30;3.33;;;;;;;11.16;87.36;101597.38;4904560;29;20316;-80
2023/05/29 04:40:23;;;;;;;7.05;2.45;;;;;;;11.18;87.19;101602.59;4904274;29;20131;-81
2023/05/29 04:42:50;;;;;;;13.75;3.20;;;;;;;11.28;86.75;101606.13;4894173;29;20491;-85
2023/05/29 04:45:19;;;;;;;8.90;2.80;;;;;;;11.35;86.46;101597.41;4896020;29;20040;-84
2023/05/29 04:47:46;;;;;;;6.40;2.80;;;;;;;11.40;86.14;101593.06;4913481;29;20051;-84
2023/05/29 04:50:14;;;;;;;5.43;2.15;;;;;;;11.45;85.72;101595.72;4897848;29;20119;-81
2023/05/29 04:52:41;;;;;;;5.90;1.88;;;;;;;11.46;85.51;101594.81;4905830;29;20036;-81
2023/05/29 04:55:08;;;;;;;10.27;2.63;;;;;;;11.46;85.53;101593.09;4892853;29;20041;-81
2023/05/29 04:57:35;;;;;;;13.23;2.75;;;;;;;11.42;84.97;101592.19;4904466;29;20044;-81
2023/05/29 05:00:05;;;;;;;9.90;2.58;;;;;;;11.36;85.33;101597.41;4909360;29;20063;-80
2023/05/29 05:02:31;;;;;;;11.45;2.65;;;;;;;11.32;85.60;101602.66;4876708;29;20099;-80
2023/05/29 05:04:58;;;;;;;7.95;2.55;;;;;;;11.29;85.91;101600.91;4886810;29;20043;-80
2023/05/29 05:07:25;;;;;;;11.80;3.10;;;;;;;11.28;85.79;101598.25;4919942;29;20100;-82
2023/05/29 05:09:51;;;;;;;10.20;3.38;;;;;;;11.29;85.74;101608.78;4915515;29;20467;-80
2023/05/29 05:12:18;;;;;;;6.35;2.75;;;;;;;11.27;85.96;101609.63;4913574;29;20040;-81
2023/05/29 05:14:44;;;;;;;6.85;2.30;;;;;;;11.30;85.75;101597.41;4900331;29;20095;-86
2023/05/29 05:17:11;;;;;;;9.68;1.92;;;;;;;11.34;85.33;101603.53;4892858;29;20068;-83
2023/05/29 05:19:37;;;;;;;8.80;2.65;;;;;;;11.36;85.10;101593.94;4877162;29;20044;-83
2023/05/29 05:22:05;;;;;;;9.45;2.88;;;;;;;11.33;85.27;101592.19;4895584;29;20040;-80
2023/05/29 05:24:34;;;;;;;11.90;2.80;;;;;;;11.36;84.59;101599.19;4915870;29;20124;-81
2023/05/29 05:27:01;;;;;;;8.55;2.58;;;;;;;11.37;84.73;101591.31;4895144;29;20122;-82
2023/05/29 05:29:28;;;;;;;8.55;2.40;;;;;;;11.42;84.43;101604.44;4890913;29;20056;-81
2023/05/29 05:31:54;;;;;;;7.00;2.30;;;;;;;11.47;83.94;101602.72;4892758;29;20052;-81
2023/05/29 05:34:21;;;;;;;7.38;2.50;;;;;;;11.58;83.63;101607.97;4888022;29;20048;-91
2023/05/29 05:36:49;;;;;;;9.82;2.47;;;;;;;11.70;83.07;101607.13;4884282;29;20054;-81
2023/05/29 05:39:15;;;;;;;9.65;1.92;;;;;;;11.79;82.93;101614.13;4900612;29;20051;-82
2023/05/29 05:41:42;;;;;;;9.13;2.65;;;;;;;11.89;82.40;101613.28;4900124;29;20159;-81
2023/05/29 05:44:09;;;;;;;8.70;2.50;;;;;;;11.95;81.87;101615.91;4899918;29;20044;-83
2023/05/29 05:46:35;;;;;;;4.85;2.35;;;;;;;12.03;81.01;101623.81;4899927;29;20053;-81
2023/05/29 05:49:02;;;;;;;12.82;3.13;;;;;;;12.03;80.92;101619.44;4900246;29;20071;-81
2023/05/29 05:51:28;;;;;;;6.43;2.47;;;;;;;12.03;80.67;101626.44;4886363;29;20048;-80
2023/05/29 05:54:00;;;;;;;12.20;3.40;;;;;;;12.02;80.39;101617.69;4889992;29;20044;-81
2023/05/29 05:56:34;;;;;;;7.95;2.92;;;;;;;12.05;80.55;101619.44;4893649;29;20494;-80
2023/05/29 05:59:00;;;;;;;8.70;2.67;;;;;;;12.10;80.20;101615.06;4901831;29;20047;-80
2023/05/29 06:01:27;;;;;;;14.27;2.67;;;;;;;12.12;80.02;101618.56;4903850;29;20048;-80
2023/05/29 06:03:54;;;;;;;7.97;2.75;;;;;;;12.12;79.98;101615.94;4916143;29;20048;-81
2023/05/29 06:06:20;;;;;;;12.10;2.95;;;;;;;12.12;80.09;101620.31;4905979;29;20044;-80
2023/05/29 06:08:48;;;;;;;9.32;3.03;;;;;;;12.15;79.70;101618.56;4883563;29;20088;-82
2023/05/29 06:11:17;;;;;;;5.47;3.00;;;;;;;12.21;79.70;101623.78;4904148;29;20122;-81
2023/05/29 06:13:43;;;;;;;7.00;2.55;;;;;;;12.24;79.42;101628.16;4898006;29;20381;-80
2023/05/29 06:16:10;;;;;;;8.38;2.70;;;;;;;12.31;79.29;101631.69;4879679;29;20445;-81
2023/05/29 06:18:36;;;;;;;9.32;2.83;;;;;;;12.33;78.56;101638.69;4907686;29;20040;-80
2023/05/29 06:21:03;;;;;;;9.98;2.42;;;;;;;12.38;78.07;101642.19;4892808;29;20054;-80
2023/05/29 06:23:29;;;;;;;13.07;2.38;;;;;;;12.47;78.24;101640.44;4889149;29;20067;-80
2023/05/29 06:25:56;;;;;;;10.80;2.45;;;;;;;12.63;77.52;101649.16;4900619;29;20048;-81
2023/05/29 06:28:23;;;;;;;7.88;2.88;;;;;;;12.76;76.72;101644.75;4894366;29;20084;-80
2023/05/29 06:30:49;;;;;;;7.40;2.15;;;;;;;12.96;76.19;101640.34;4898166;29;20295;-84
2023/05/29 06:33:20;;;;;;;7.00;2.72;;;;;;;12.98;75.73;101640.31;4890248;29;20075;-81
2023/05/29 06:35:46;;;;;;;8.02;2.42;;;;;;;13.00;74.68;101642.06;4920367;29;20119;-81
2023/05/29 06:38:14;;;;;;;8.15;2.83;;;;;;;13.01;74.67;101641.19;4900233;29;20103;-81
2023/05/29 06:40:40;;;;;;;9.20;2.17;;;;;;;12.98;74.69;101637.69;4900145;29;20472;-81
2023/05/29 06:43:26;;;;;;;14.68;4.03;;;;;;;13.02;74.71;101635.06;4915837;29;20132;-81
2023/05/29 06:46:00;;;;;;;4.32;2.17;;;;;;;13.03;74.21;101634.16;4924421;29;20044;-81
2023/05/29 06:48:27;;;;;;;11.40;2.42;;;;;;;13.09;74.45;101643.81;4894732;29;20044;-80
2023/05/29 06:50:53;;;;;;;5.40;1.95;;;;;;;13.11;74.02;101647.28;4897111;29;20067;-81
2023/05/29 06:53:20;;;;;;;9.45;2.20;;;;;;;13.18;73.54;101656.91;4892533;29;20040;-82
2023/05/29 06:55:46;;;;;;;9.40;2.38;;;;;;;13.20;73.14;101651.63;4915025;29;20077;-96
2023/05/29 06:58:13;;;;;;;8.20;1.83;;;;;;;13.26;72.05;101658.63;4918822;29;20060;-80
2023/05/29 07:00:40;;;;;;;18.42;3.60;;;;;;;13.31;72.24;101649.84;4902434;29;20040;-83
2023/05/29 07:03:06;;;;;;;6.78;2.40;;;;;;;13.40;72.07;101659.47;4881749;29;20139;-80
2023/05/29 07:05:36;;;;;;;7.82;3.08;;;;;;;13.50;71.26;101666.44;4901776;29;20056;-80
2023/05/29 07:08:03;;;;;;;8.18;2.35;;;;;;;13.67;71.23;101674.22;4903038;29;20048;-79
2023/05/29 07:10:30;;;;;;;12.60;2.30;;;;;;;13.89;70.00;101664.47;4931455;29;20121;-79
2023/05/29 07:12:56;;;;;;;8.00;2.00;;;;;;;13.97;68.81;101672.31;4897769;29;20040;-83
2023/05/29 07:15:23;;;;;;;4.40;1.60;;;;;;;14.18;68.60;101670.41;4895245;29;20556;-84
2023/05/29 07:17:50;;;;;;;12.70;3.30;;;;;;;14.51;65.64;101671.00;4898588;29;20046;-82
2023/05/29 07:20:18;;;;;;;12.85;3.25;;;;;;;14.84;64.86;101667.22;4898901;29;20060;-81
2023/05/29 07:22:45;;;;;;;9.50;2.05;;;;;;;15.27;64.01;101676.41;4904986;29;20115;-83
2023/05/29 07:25:12;;;;;;;9.73;2.22;;;;;;;15.80;61.36;101667.78;4918808;29;20040;-83
2023/05/29 07:27:39;;;;;;;4.63;1.33;;;;;;;16.02;60.17;101682.47;4904030;29;20134;-81
2023/05/29 07:30:06;;;;;;;5.85;2.20;;;;;;;16.40;58.80;101672.19;4902822;29;20138;-84
2023/05/29 07:32:33;;;;;;;10.32;2.53;;;;;;;16.38;58.19;101669.53;4905494;29;20131;-81
2023/05/29 07:34:59;;;;;;;10.45;2.30;;;;;;;16.41;56.88;101670.41;4892462;29;20093;-80
2023/05/29 07:37:26;;;;;;;10.18;2.63;;;;;;;16.36;56.70;101665.19;4894721;29;20123;-80
2023/05/29 07:39:52;;;;;;;7.43;1.90;;;;;;;16.28;56.55;101664.44;4888168;29;20403;-83
2023/05/29 07:42:19;;;;;;;8.85;2.15;;;;;;;16.28;56.66;101669.72;4884741;29;20032;-82
2023/05/29 07:44:45;;;;;;;11.07;2.42;;;;;;;16.41;55.22;101668.63;4887744;29;20056;-83
2023/05/29 07:47:12;;;;;;;10.60;2.90;;;;;;;16.84;55.50;101677.56;4898190;29;20040;-81
2023/05/29 07:49:39;;;;;;;4.28;2.33;;;;;;;17.35;52.25;101684.53;4897938;29;20040;-82
2023/05/29 07:52:07;;;;;;;7.65;2.60;;;;;;;17.67;52.04;101672.38;4895481;29;20478;-89
2023/05/29 07:54:34;;;;;;;7.18;2.05;;;;;;;18.48;49.93;101688.13;4887768;29;20506;-82
2023/05/29 07:57:02;;;;;;;8.55;2.00;;;;;;;18.99;48.97;101686.84;4899546;29;20130;-82
2023/05/29 07:59:30;;;;;;;4.13;1.65;;;;;;;19.63;45.72;101683.22;4894421;29;20071;-82
2023/05/29 08:01:58;;;;;;;10.75;3.60;;;;;;;19.29;46.61;101689.50;4892803;29;20048;-88
2023/05/29 08:04:25;;;;;;;6.55;2.20;;;;;;;19.79;45.43;101682.72;4896179;29;20052;-82
2023/05/29 08:06:54;;;;;;;10.32;2.97;;;;;;;20.48;44.06;101680.53;4900384;29;20044;-80
2023/05/29 08:09:20;;;;;;;8.57;2.80;;;;;;;20.65;43.12;101679.09;4902971;29;20067;-86
2023/05/29 08:11:47;;;;;;;7.80;1.83;;;;;;;20.82;43.00;101678.50;4908153;29;20056;-81
2023/05/29 08:14:17;;;;;;;11.18;2.70;;;;;;;21.10;41.88;101677.50;4893399;29;20055;-81
2023/05/29 08:16:43;;;;;;;4.18;2.20;;;;;;;21.05;41.95;101677.66;4903993;29;20040;-83
2023/05/29 08:19:10;;;;;;;8.73;3.33;;;;;;;21.08;42.42;101671.34;4899134;29;20051;-84
2023/05/29 08:21:37;;;;;;;9.30;2.47;;;;;;;21.44;40.66;101674.44;4899641;29;20047;-82
2023/05/29 08:24:05;;;;;;;8.73;2.25;;;;;;;21.81;40.42;101675.69;4899980;29;20037;-83
2023/05/29 08:26:32;;;;;;;8.27;2.40;;;;;;;22.01;39.97;101667.84;4895027;29;20051;-88
2023/05/29 08:28:59;;;;;;;8.18;2.47;;;;;;;21.93;39.52;101673.47;4872871;29;20131;-80
2023/05/29 08:31:26;;;;;;;8.10;2.45;;;;;;;22.02;40.19;101672.22;4898530;29;20040;-81
2023/05/29 08:33:54;;;;;;;7.78;3.88;;;;;;;22.03;39.06;101665.97;4900342;29;20139;-84
2023/05/29 08:36:22;;;;;;;7.32;2.15;;;;;;;22.42;38.66;101662.59;4908270;29;20047;-85
2023/05/29 08:38:49;;;;;;;7.57;2.22;;;;;;;23.18;37.21;101669.97;4885456;29;20052;-82
2023/05/29 08:41:43;;;;;;;6.45;2.80;;;;;;;23.57;35.56;101669.91;4876448;29;20068;-81
2023/05/29 08:44:15;;;;;;;4.13;1.70;;;;;;;23.68;35.06;101672.06;4895673;29;20146;-83
2023/05/29 08:46:41;;;;;;;5.53;2.50;;;;;;;23.53;35.18;101673.69;4880032;29;20067;-82
2023/05/29 08:49:09;;;;;;;7.97;1.90;;;;;;;23.74;35.29;101677.13;4893576;29;20052;-82
2023/05/29 08:51:43;;;;;;;5.40;2.33;;;;;;;23.74;34.75;101681.59;4902441;29;20083;-83
2023/05/29 08:54:11;;;;;;;5.70;2.35;;;;;;;23.50;34.94;101679.16;4894841;29;20051;-82
2023/05/29 08:56:40;;;;;;;4.82;2.13;;;;;;;24.19;34.37;101676.78;4878231;29;20051;-80
2023/05/29 08:59:08;;;;;;;8.13;2.50;;;;;;;24.83;33.08;101683.31;4898179;29;20049;-82
2023/05/29 09:01:36;;;;;;;6.10;2.10;;;;;;;24.88;32.68;101677.72;4892552;29;20071;-80
2023/05/29 09:04:03;;;;;;;6.18;2.20;;;;;;;24.63;32.35;101668.31;4891508;29;20052;-82
2023/05/29 09:06:34;;;;;;;5.43;2.63;;;;;;;23.56;34.40;101694.03;4894295;29;20048;-80
2023/05/29 09:09:10;;;;;;;5.05;2.28;;;;;;;24.29;33.37;101691.44;4895801;29;20055;-83
2023/05/29 09:11:46;;;;;;;4.00;1.95;;;;;;;25.08;32.95;101684.69;4899413;29;20063;-82
2023/05/29 09:14:37;;;;;;;4.57;1.63;;;;;;;25.49;31.62;101676.22;4893503;29;20040;-84
2023/05/29 09:17:34;;;;;;;;;;;;;;;25.00;31.47;101679.75;4881907;29;20123;-83
2023/05/29 09:20:04;;;;;;;2.50;1.55;;;;;;;24.35;32.90;101676.84;4908643;29;19931;-82
2023/05/29 09:22:31;;;;;;;6.28;1.67;;;;;;;25.38;31.99;101673.28;4888143;29;20115;-82
2023/05/29 09:24:59;;;;;;;3.75;1.60;;;;;;;26.17;30.65;101669.72;4900401;29;20044;-83
2023/05/29 09:27:26;;;;;;;6.43;2.45;;;;;;;26.82;30.34;101675.75;4878423;29;20052;-84
2023/05/29 09:29:52;;;;;;;5.75;2.75;;;;;;;26.22;30.42;101682.88;4914519;29;20139;-83
2023/05/29 09:32:19;;;;;;;6.55;2.28;;;;;;;26.97;29.28;101687.34;4899134;29;20048;-81
2023/05/29 09:34:46;;;;;;;8.25;2.25;;;;;;;27.15;29.09;101679.97;4891267;29;20464;-81
2023/05/29 09:37:13;;;;;;;4.80;1.55;;;;;;;26.91;28.69;101677.88;4890675;29;20036;-84
2023/05/29 09:39:46;;;;;;;4.53;2.00;;;;;;;26.05;30.28;101681.19;4877668;29;20056;-85
2023/05/29 09:42:14;;;;;;;3.90;1.70;;;;;;;25.98;29.98;101672.56;4907292;29;20083;-83
2023/05/29 09:44:46;;;;;;;6.28;1.90;;;;;;;26.39;29.16;101688.09;4911137;29;20118;-88
2023/05/29 09:47:20;;;;;;;4.95;1.90;;;;;;;27.00;28.64;101679.09;4892921;29;20052;-82
2023/05/29 09:49:47;;;;;;;8.00;2.60;;;;;;;26.37;28.53;101675.72;4899828;29;20057;-83
2023/05/29 09:52:15;;;;;;;3.55;2.15;;;;;;;26.08;29.44;101671.09;4905731;29;20040;-82
2023/05/29 09:54:46;;;;;;;5.90;2.15;;;;;;;25.68;29.93;101678.75;4904718;29;20123;-84
2023/05/29 09:57:17;;;;;;;6.50;2.20;;;;;;;26.74;28.72;101673.53;4903241;29;20088;-92
2023/05/29 09:59:48;;;;;;;5.15;2.75;;;;;;;27.51;27.54;101668.72;4904370;29;20416;-83
2023/05/29 10:02:16;;;;;;;6.72;2.72;;;;;;;28.02;26.98;101664.56;4902053;29;20044;-83
2023/05/29 10:04:43;;;;;;;5.93;1.90;;;;;;;28.18;26.53;101667.94;4919303;29;20048;-81
2023/05/29 10:07:28;;;;;;;4.80;1.85;;;;;;;28.66;25.93;101666.53;4892758;29;20048;-89
2023/05/29 10:10:05;;;;;;;4.10;1.75;;;;;;;28.71;25.57;101661.69;4896787;29;20045;-81
2023/05/29 10:12:51;;;;;;;5.13;2.05;;;;;;;28.80;25.85;101668.25;4895897;29;20063;-81
2023/05/29 10:15:19;;;;;;;6.82;2.53;;;;;;;28.29;26.20;101667.22;4890249;29;20142;-81
2023/05/29 10:17:54;;;;;;;3.95;2.08;;;;;;;27.70;27.09;101664.81;4898264;29;20486;-81
2023/05/29 10:20:22;;;;;;;5.53;2.65;;;;;;;27.91;27.45;101657.16;4911179;29;20067;-80
2023/05/29 10:22:55;;;;;;;5.25;2.28;;;;;;;29.29;25.88;101672.00;4889956;29;20055;-84
2023/05/29 10:25:21;;;;;;;3.10;2.05;;;;;;;30.22;25.19;101659.78;4923225;29;20078;-91
2023/05/29 10:27:49;;;;;;;5.35;2.70;;;;;;;31.22;24.13;101656.53;4915356;29;20462;-81
2023/05/29 10:30:35;;;;;;;6.30;2.40;;;;;;;31.76;23.76;101658.41;4894328;29;20056;-90
2023/05/29 10:33:29;;;;;;;4.55;2.13;;;;;;;31.86;22.67;101658.47;4908933;29;20059;-89
2023/05/29 10:36:07;;;;;;;5.63;2.25;;;;;;;32.32;22.69;101651.06;4919205;29;20074;-82
2023/05/29 10:38:34;;;;;;;4.18;1.77;;;;;;;32.51;22.74;101644.88;4894683;29;20112;-84
2023/05/29 10:41:26;;;;;;;3.72;1.98;;;;;;;32.56;22.12;101645.34;4900508;29;20044;-91
2023/05/29 10:43:59;;;;;;;7.63;2.20;;;;;;;31.07;23.63;101642.38;4909770;29;20114;-82
2023/05/29 10:46:44;;;;;;;4.57;2.08;;;;;;;31.14;23.26;101640.91;4896424;29;20053;-88
2023/05/29 10:49:21;;;;;;;6.28;2.15;;;;;;;31.74;23.11;101636.00;4914056;29;20052;-85
2023/05/29 10:51:49;;;;;;;5.07;2.00;;;;;;;32.54;22.54;101633.78;4894609;29;20566;-86
2023/05/29 10:54:18;;;;;;;4.07;1.65;;;;;;;32.93;21.62;101642.13;4895958;29;20419;-89
2023/05/29 10:56:53;;;;;;;5.82;1.95;;;;;;;32.97;21.58;101637.28;4895274;29;20072;-82
2023/05/29 10:59:20;;;;;;;4.82;1.83;;;;;;;33.28;21.74;101642.69;4880636;29;20460;-81
2023/05/29 11:01:46;;;;;;;6.78;2.40;;;;;;;33.46;20.97;101632.88;4879851;29;20803;-85
2023/05/29 11:04:16;;;;;;;4.35;2.28;;;;;;;33.69;21.09;101631.75;4909478;29;20032;-88
2023/05/29 11:06:43;;;;;;;4.00;2.10;;;;;;;32.99;21.51;101627.16;4896259;29;20427;-85
2023/05/29 11:09:35;;;;;;;5.50;2.35;;;;;;;32.69;21.31;101628.00;4911226;29;20575;-83
2023/05/29 11:12:35;;;;;;;;;;;;;;;33.15;20.72;101624.78;4921928;29;20051;-83
2023/05/29 11:15:10;;;;;;;3.90;2.20;;;;;;;33.40;20.87;101629.84;4906482;29;19966;-85
2023/05/29 11:17:40;;;;;;;3.60;1.95;;;;;;;33.89;20.01;101629.94;4891677;29;20044;-87
2023/05/29 11:20:10;;;;;;;3.80;2.28;;;;;;;34.02;19.93;101621.50;4907077;29;20101;-84
2023/05/29 11:23:06;;;;;;;3.33;1.92;;;;;;;33.99;19.97;101625.38;4878311;29;20464;-83
2023/05/29 11:25:36;;;;;;;3.22;2.13;;;;;;;34.07;20.21;101617.34;4891637;29;20226;-86
2023/05/29 11:28:07;;;;;;;4.97;2.15;;;;;;;34.58;20.21;101633.44;4894903;29;20050;-89
2023/05/29 11:30:45;;;;;;;6.32;2.15;;;;;;;34.93;18.93;101619.13;4905891;29;20336;-88
2023/05/29 11:33:23;;;;;;;6.72;1.77;;;;;;;34.68;19.75;101617.94;4915500;29;20068;-93